Terminal Aerodrome Forecast
Issued by NWS Pocatello, ID

Home | Current Version | Previous Version | Text Only | Print | Product List | Glossary On
Versions: 1 2 3 4 5 6 7 8 9 10 11 12 13
000
FTUS45 KPIH 261120
TAFBYI
TAF
KBYI 261120Z 2612/2712 25015G25KT P6SM VCSH SCT120
     FM261500 28018G28KT P6SM SCT050 SCT120
     FM270200 25011KT P6SM SCT090 BKN140=

USA.gov is the U.S. government's official web portal to all federal, state and local government web resources and services.